Terminal Aerodrome Forecast
Issued by NWS Wilmington, OH

Current Version | Previous Version | Text Only | Print | Product List | Glossary Off
Versions: 1 2 3 4 5 6 7 8 9 10 11 12 13 14 15 16 17 18 19 20 21 22 23 24 25 26 27 28 29

000
FTUS41 KILN 271300 AAA
TAFCVG
TAF AMD
KCVG 271321Z 2713/2818 32005KT P6SM SCT035
     FM280000 04004KT P6SM FEW035 SCT150
     FM281200 08006KT P6SM BKN080
     FM281500 09007KT P6SM SCT022 BKN070=

USA.gov is the U.S. government's official web portal to all federal, state and local government web resources and services.